Terminal Aerodrome Forecast
Issued by NWS

Home | Current Version | Previous Version | Text Only | Print | Product List | Glossary On
Versions: 1 2 3 4 5 6 7 8 9 10 11 12 13 14 15
355
FTUS43 KSGF 231128
TAFJLN
TAF
KJLN 231128Z 2312/2412 VRB03KT P6SM BKN120
     FM231500 33006KT P6SM VCTS BKN040CB
     FM231900 36010G19KT P6SM BKN070
     FM232100 01010KT P6SM SCT140
     FM240100 36006KT P6SM FEW200=

USA.gov is the U.S. government's official web portal to all federal, state and local government web resources and services.